Track Склярова Карина

Time Latitude Longitude Accuracy (66% radius in meters) Altitude (meters) Speed (km/hour) Bearing (degrees) Battery (%) GPS flag
03:45:51 51.887488 107.641512 3 669 4.3000001907349 121.90000152588 89 1 delete
03:45:49 51.887544 107.641378 3 670 4.7800002098083 126.5 89 1 delete
03:45:46 51.887624 107.641204 3 670 4.710000038147 116 89 1 delete
03:45:44 51.887672 107.641071 3 672 4.8600001335144 106 89 1 delete
03:45:42 51.887692 107.640923 3 672 4.0900001525879 70.5 89 1 delete
03:45:32 51.887622 107.640768 4 669 0 0 89 1 delete
03:45:21 51.887674 107.640782 5 668 0.74000000953674 156.80000305176 89 1 delete
03:45:19 51.887697 107.640772 4 668 1.8799999952316 164.10000610352 89 1 delete
03:45:14 51.887789 107.640734 3 669 1 138.5 89 1 delete
03:45:11 51.887805 107.640674 3 672 1.4800000190735 103 89 1 delete
03:45:04 51.887819 107.640579 3 674 0.37000000476837 114.90000152588 89 1 delete
03:45:00 51.887844 107.640539 3 675 2.1600000858307 136.60000610352 89 1 delete
03:44:58 51.887881 107.640469 3 675 3.2000000476837 120.09999847412 89 1 delete
03:44:55 51.887918 107.640301 3 675 3.3900001049042 108.40000152588 89 1 delete
03:44:52 51.887947 107.640133 3 676 3.5099999904633 109.09999847412 89 1 delete
03:44:49 51.887988 107.639965 3 675 4.25 111.40000152588 89 1 delete
03:44:46 51.888030 107.639779 3 675 3.539999961853 108.30000305176 89 1 delete
03:44:43 51.888056 107.639637 3 675 3.1199998855591 112.69999694824 89 1 delete
03:44:40 51.888092 107.639476 3 675 4.1700000762939 106.80000305176 89 1 delete
03:44:38 51.888107 107.639362 3 676 3.2200000286102 104.90000152588 89 1 delete
03:44:36 51.888121 107.639277 3 676 2.1500000953674 108.19999694824 89 1 delete
03:44:29 51.888148 107.639124 3 678 1.5900000333786 105 89 1 delete
03:44:27 51.888158 107.639078 3 678 1.4199999570847 111.40000152588 89 1 delete
03:44:22 51.888183 107.638979 3 678 1.3600000143051 106.90000152588 89 1 delete
03:44:16 51.888201 107.638847 3 678 1.2400000095367 111.09999847412 89 1 delete
03:44:15 51.888205 107.638827 3 678 1.25 111.09999847412 89 1 delete
03:44:08 51.888220 107.638679 3 678 1.0199999809265 94.599998474121 89 1 delete
03:44:02 51.888229 107.638568 3 676 1.3500000238419 100.90000152588 89 1 delete
03:44:00 51.888233 107.638519 3 677 1.7300000190735 109.80000305176 89 1 delete
03:43:53 51.888273 107.638388 3 677 1.289999961853 127.80000305176 89 1 delete
03:43:51 51.888289 107.638350 3 676 1.4800000190735 126.30000305176 89 1 delete
03:43:46 51.888320 107.638243 3 676 1.1200000047684 99.599998474121 89 1 delete
03:43:41 51.888330 107.638127 3 676 1.0800000429153 113.5 89 1 delete
03:43:39 51.888338 107.638085 3 677 1.1299999952316 113.5 89 1 delete
03:43:32 51.888356 107.637924 4 680 0.94999998807907 89.099998474121 89 1 delete
03:43:31 51.888358 107.637908 4 680 0.83999997377396 89.099998474121 89 1 delete
03:43:24 51.888367 107.637770 5 681 0.88999998569489 129.80000305176 89 1 delete
03:43:20 51.888388 107.637670 6 682 2.4300000667572 105.40000152588 89 1 delete
03:43:19 51.888398 107.637618 6 681 2.9200000762939 103.69999694824 89 1 delete
03:43:16 51.888421 107.637469 8 682 2.4000000953674 104.59999847412 89 1 delete
03:43:12 51.888450 107.637305 5 682 2.539999961853 96.699996948242 89 1 delete
03:43:10 51.888459 107.637227 5 682 2.710000038147 94.5 89 1 delete
03:43:08 51.888465 107.637127 5 682 3.9300000667572 96.800003051758 89 1 delete
03:43:05 51.888485 107.636973 4 682 2.8299999237061 104.69999694824 89 1 delete
03:43:02 51.888507 107.636808 4 681 2.7599999904633 96.800003051758 89 1 delete
03:42:59 51.888512 107.636643 5 683 3.3199999332428 94.199996948242 89 1 delete
03:42:58 51.888515 107.636583 5 684 3.460000038147 95 89 1 delete
03:42:56 51.888517 107.636468 4 685 2.8800001144409 95.099998474121 89 1 delete
03:42:52 51.888538 107.636291 4 687 3.0099999904633 103.69999694824 89 1 delete
03:42:49 51.888574 107.636151 4 688 3.289999961853 106.80000305176 89 1 delete